Current | Forecast
Updated: 10:00 AM EET on February 19, 2018
Observed at Boryspil', Ukraine
Temperature -3°C
Windchill -8°C
Humidity 86%
Dew Point -5°C
Wind NW at 14 km/h
Pressure 1023 hPa (Steady)
Conditions Mostly Cloudy
Visibility 10.0 kilometers
UV 1 out of 16
Clouds Mostly Cloudy (BKN) : 609 m
Yesterday's Maximum 1°C
Yesterday's Minimum -3°C approx.
Yesterday's Heating Degree Days 35 approx.
Sunrise7:00 AM EET
Sunset5:20 PM EET
Moon Rise8:43 AM EET
Moon Set9:17 PM EET
Moon PhaseMoon Phase
Waxing Crescent
Raw METARMETAR UKBB 190800Z 32004MPS 9999 BKN020 M03/M05 Q1023 R36R/190050 R36L/190060 NOSIG


Monday
. High: 62° F.
Tuesday
. High: 64° F.
Wednesday
. High: 64° F.
Thursday
. High: 69° F.
Friday
. High: 60° F.
Saturday
. High: 66° F.
Sunday
. High: 66° F.
Monday
. High: 73° F.

Units: English | Metric

Find the Weather for any City, State or Zipcode, or Country:

U.S. State List | Severe Weather | Tropical Storms | Ski Conditions
United States | Canada | Central America | South America | Asia | Europe | Australia | Africa | Islands

Weather Underground

© Copyright 2018
The Weather Company, LLC